createdAt,value
2023-03-25T00:00:00.047Z,8.40
2023-03-25T00:02:27.601Z,8.88
2023-03-25T00:04:54.760Z,9.02
2023-03-25T00:07:22.010Z,7.63
2023-03-25T00:09:48.920Z,7.97
2023-03-25T00:12:18.974Z,8.55
2023-03-25T00:14:55.251Z,6.78
2023-03-25T00:17:23.617Z,7.88
2023-03-25T00:19:53.218Z,9.45
2023-03-25T00:22:19.800Z,8.60
2023-03-25T00:24:46.792Z,7.78
2023-03-25T00:27:14.553Z,8.95
2023-03-25T00:29:44.637Z,7.00
2023-03-25T00:32:13.465Z,8.13
2023-03-25T00:34:41.888Z,8.90
2023-03-25T00:37:09.550Z,8.13
2023-03-25T00:39:39.359Z,8.38
2023-03-25T00:42:06.095Z,8.55
2023-03-25T00:44:32.777Z,8.02
2023-03-25T00:46:59.506Z,7.60
2023-03-25T00:49:28.645Z,6.45
2023-03-25T00:51:56.608Z,8.52
2023-03-25T00:56:52.412Z,7.85
2023-03-25T00:59:19.301Z,8.50
2023-03-25T01:01:48.759Z,9.27
2023-03-25T01:04:16.744Z,7.35
2023-03-25T01:06:46.463Z,7.53
2023-03-25T01:09:15.548Z,8.75
2023-03-25T01:11:44.400Z,8.85
2023-03-25T01:14:16.419Z,10.40
2023-03-25T01:16:43.440Z,8.10
2023-03-25T01:19:11.223Z,9.18
2023-03-25T01:21:37.845Z,7.95
2023-03-25T01:24:05.736Z,8.43
2023-03-25T01:28:59.641Z,9.15
2023-03-25T01:31:30.076Z,7.68
2023-03-25T01:33:58.110Z,8.05
2023-03-25T01:36:29.524Z,8.27
2023-03-25T01:38:59.943Z,8.95
2023-03-25T01:41:35.695Z,8.15
2023-03-25T01:44:14.859Z,7.05
2023-03-25T01:46:45.439Z,8.40
2023-03-25T01:49:26.967Z,8.20
2023-03-25T01:51:58.223Z,8.60
2023-03-25T01:54:25.093Z,7.35
2023-03-25T01:56:52.299Z,6.22
2023-03-25T01:59:24.812Z,7.18
2023-03-25T02:01:53.630Z,7.28
2023-03-25T02:04:59.489Z,7.45
2023-03-25T02:07:33.265Z,7.88
2023-03-25T02:10:09.397Z,8.10
2023-03-25T02:12:36.222Z,7.55
2023-03-25T02:15:07.614Z,7.90
2023-03-25T02:17:49.434Z,8.35
2023-03-25T02:20:37.706Z,7.82
2023-03-25T02:23:21.891Z,7.32
2023-03-25T02:26:05.900Z,8.70
2023-03-25T02:29:02.100Z,7.97
2023-03-25T02:31:43.668Z,7.18
2023-03-25T02:34:37.989Z,7.82
2023-03-25T02:37:22.869Z,8.40
2023-03-25T02:39:56.269Z,8.55
2023-03-25T02:42:30.980Z,6.20
2023-03-25T02:45:15.601Z,6.50
2023-03-25T02:47:46.861Z,10.18
2023-03-25T02:50:23.830Z,9.23
2023-03-25T02:52:56.399Z,7.07
2023-03-25T02:55:25.524Z,8.48
2023-03-25T02:57:57.288Z,8.48
2023-03-25T03:00:29.803Z,6.88
2023-03-25T03:03:02.478Z,7.15
2023-03-25T03:05:31.234Z,7.20
2023-03-25T03:08:04.068Z,9.27
2023-03-25T03:10:44.392Z,8.43
2023-03-25T03:13:32.752Z,6.28
2023-03-25T03:16:13.384Z,8.15
2023-03-25T03:18:57.264Z,7.50
2023-03-25T03:21:51.502Z,7.57
2023-03-25T03:24:24.110Z,7.75
2023-03-25T03:27:23.830Z,9.50
2023-03-25T03:30:02.915Z,8.02
2023-03-25T03:32:42.056Z,7.97
2023-03-25T03:35:08.750Z,7.07
2023-03-25T03:37:43.449Z,7.63
2023-03-25T03:40:16.461Z,6.65
2023-03-25T03:42:55.318Z,7.28
2023-03-25T03:45:29.169Z,6.97
2023-03-25T03:47:59.265Z,8.05
2023-03-25T03:50:52.132Z,8.02
2023-03-25T03:53:26.861Z,7.88
2023-03-25T03:56:03.754Z,8.15
2023-03-25T03:58:42.863Z,8.27
2023-03-25T04:01:45.812Z,7.97
2023-03-25T04:04:23.865Z,7.28
2023-03-25T04:06:56.960Z,8.93
2023-03-25T04:09:57.857Z,7.13
2023-03-25T04:12:33.097Z,8.05
2023-03-25T04:15:04.486Z,6.50
2023-03-25T04:17:32.915Z,7.43
2023-03-25T04:20:01.601Z,7.28
2023-03-25T04:22:28.383Z,7.30
2023-03-25T04:24:56.247Z,8.15
2023-03-25T04:27:29.610Z,9.25
2023-03-25T04:29:57.659Z,7.72
2023-03-25T04:34:50.849Z,5.95
2023-03-25T04:37:17.501Z,8.52
2023-03-25T04:39:44.132Z,7.90
2023-03-25T04:42:13.931Z,8.23
2023-03-25T04:44:40.798Z,8.43
2023-03-25T04:47:11.921Z,9.55
2023-03-25T04:49:38.601Z,7.45
2023-03-25T04:52:06.524Z,7.10
2023-03-25T04:54:33.170Z,8.65
2023-03-25T04:56:59.983Z,8.52
2023-03-25T04:59:27.112Z,7.18
2023-03-25T05:01:54.120Z,8.50
2023-03-25T05:04:21.601Z,7.82
2023-03-25T05:06:51.201Z,8.20
2023-03-25T05:09:22.208Z,8.40
2023-03-25T05:11:50.984Z,7.30
2023-03-25T05:14:21.528Z,6.43
2023-03-25T05:16:48.556Z,8.57
2023-03-25T05:19:15.744Z,6.53
2023-03-25T05:21:42.748Z,6.57
2023-03-25T05:24:13.424Z,7.10
2023-03-25T05:26:42.016Z,8.02
2023-03-25T05:29:14.224Z,7.53
2023-03-25T05:31:42.228Z,7.47
2023-03-25T05:34:09.342Z,6.07
2023-03-25T05:36:36.385Z,8.10
2023-03-25T05:39:05.469Z,8.55
2023-03-25T05:41:38.725Z,7.35
2023-03-25T05:44:10.302Z,7.97
2023-03-25T05:46:37.320Z,7.97
2023-03-25T05:49:03.980Z,7.80
2023-03-25T05:51:39.749Z,7.05
2023-03-25T05:54:10.836Z,8.20
2023-03-25T05:56:38.302Z,9.23
2023-03-25T05:59:05.116Z,9.57
2023-03-25T06:01:34.818Z,8.57
2023-03-25T06:04:03.687Z,8.30
2023-03-25T06:06:34.055Z,8.65
2023-03-25T06:09:02.246Z,7.60
2023-03-25T06:11:29.456Z,8.65
2023-03-25T06:13:56.232Z,8.82
2023-03-25T06:16:29.695Z,7.15
2023-03-25T06:18:59.525Z,9.32
2023-03-25T06:21:28.309Z,8.43
2023-03-25T06:23:57.736Z,7.55
2023-03-25T06:26:24.675Z,8.63
2023-03-25T06:28:51.223Z,7.38
2023-03-25T06:31:26.406Z,6.78
2023-03-25T06:33:54.084Z,7.90
2023-03-25T06:36:20.786Z,8.93
2023-03-25T06:38:49.853Z,8.35
2023-03-25T06:41:25.603Z,7.85
2023-03-25T06:44:11.397Z,8.35
2023-03-25T06:46:47.888Z,6.72
2023-03-25T06:49:17.233Z,8.30
2023-03-25T06:51:43.965Z,6.10
2023-03-25T06:54:11.012Z,6.43
2023-03-25T06:56:37.919Z,7.93
2023-03-25T06:59:05.649Z,6.00
2023-03-25T07:01:32.217Z,7.15
2023-03-25T07:03:58.947Z,8.30
2023-03-25T07:06:25.665Z,7.70
2023-03-25T07:08:52.381Z,6.75
2023-03-25T07:11:26.030Z,7.68
2023-03-25T07:13:53.953Z,7.50
2023-03-25T07:16:21.840Z,6.53
2023-03-25T07:18:50.284Z,7.65
2023-03-25T07:21:17.727Z,6.53
2023-03-25T07:23:44.702Z,6.57
2023-03-25T07:26:13.278Z,6.35
2023-03-25T07:28:40.657Z,6.55
2023-03-25T07:31:12.290Z,5.82
2023-03-25T07:33:39.534Z,7.22
2023-03-25T07:36:08.339Z,6.47
2023-03-25T07:38:35.553Z,6.00
2023-03-25T07:41:13.084Z,6.95
2023-03-25T07:43:49.838Z,7.93
2023-03-25T07:46:25.395Z,6.10
2023-03-25T07:48:52.217Z,6.35
2023-03-25T07:51:18.797Z,6.32
2023-03-25T07:53:46.478Z,6.75
2023-03-25T07:56:14.566Z,6.70
2023-03-25T07:58:42.098Z,8.63
2023-03-25T08:01:08.791Z,5.35
2023-03-25T08:03:35.549Z,5.45
2023-03-25T08:06:02.822Z,7.25
2023-03-25T08:08:30.181Z,5.90
2023-03-25T08:10:57.141Z,6.22
2023-03-25T08:13:23.962Z,5.78
2023-03-25T08:15:50.945Z,4.15
2023-03-25T08:18:18.282Z,1.60
2023-03-25T08:20:44.959Z,1.92
2023-03-25T08:23:12.744Z,1.25
2023-03-25T08:25:41.620Z,1.35
2023-03-25T08:28:08.582Z,1.30
2023-03-25T08:30:38.996Z,1.17
2023-03-25T08:33:07.275Z,0.90
2023-03-25T08:35:35.768Z,1.13
2023-03-25T08:38:05.413Z,1.70
2023-03-25T08:40:36.414Z,1.17
2023-03-25T08:43:07.020Z,1.30
2023-03-25T08:45:34.976Z,0.90
2023-03-25T08:48:01.853Z,0.65
2023-03-25T08:50:29.062Z,1.20
2023-03-25T08:52:57.566Z,1.42
2023-03-25T08:55:25.451Z,0.70
2023-03-25T08:57:52.161Z,1.00
2023-03-25T09:00:24.132Z,0.77
2023-03-25T09:02:51.671Z,0.57
2023-03-25T09:05:19.184Z,0.77
2023-03-25T09:07:46.827Z,1.10
2023-03-25T09:10:14.294Z,1.55
2023-03-25T09:12:41.452Z,0.45
2023-03-25T09:15:09.346Z,0.32
2023-03-25T09:17:39.675Z,0.35
2023-03-25T09:20:08.642Z,0.50
2023-03-25T09:22:39.253Z,0.30
2023-03-25T09:25:06.968Z,0.50
2023-03-25T09:27:34.090Z,0.40
2023-03-25T09:30:01.102Z,0.30
2023-03-25T09:32:27.896Z,0.20
2023-03-25T09:34:55.696Z,0.10
2023-03-25T09:37:24.828Z,0.30
2023-03-25T09:39:51.552Z,0.03
2023-03-25T09:42:55.810Z,0.30
2023-03-25T09:45:30.413Z,0.35
2023-03-25T09:48:12.289Z,0.25
2023-03-25T09:50:41.242Z,0.38
2023-03-25T09:53:44.435Z,0.10
2023-03-25T09:56:16.484Z,0.50
2023-03-25T09:58:56.536Z,0.20
2023-03-25T10:01:35.351Z,0.00
2023-03-25T10:04:28.950Z,0.30
2023-03-25T10:07:08.188Z,0.17
2023-03-25T10:09:53.181Z,0.10
2023-03-25T10:12:29.328Z,0.20
2023-03-25T10:15:15.012Z,0.32
2023-03-25T10:18:14.581Z,0.50
2023-03-25T10:20:55.797Z,0.20
2023-03-25T10:23:27.917Z,0.30
2023-03-25T10:26:01.399Z,0.10
2023-03-25T10:31:01.163Z,0.25
2023-03-25T10:33:36.550Z,0.30
2023-03-25T10:36:07.399Z,0.30
2023-03-25T10:38:37.815Z,0.75
2023-03-25T10:41:12.014Z,0.30
2023-03-25T10:43:41.596Z,0.20
2023-03-25T10:46:26.411Z,0.30
2023-03-25T10:48:53.226Z,0.20
2023-03-25T10:51:26.598Z,0.60
2023-03-25T10:53:53.574Z,0.30
2023-03-25T10:56:24.880Z,0.40
2023-03-25T10:58:54.728Z,0.65
2023-03-25T11:01:37.832Z,0.25
2023-03-25T11:04:08.726Z,0.10
2023-03-25T11:06:39.953Z,0.20
2023-03-25T11:09:28.095Z,0.10
2023-03-25T11:11:54.983Z,0.03
2023-03-25T11:14:24.293Z,0.28
2023-03-25T11:16:55.644Z,0.50
2023-03-25T11:20:06.877Z,0.25
2023-03-25T11:22:38.792Z,0.20
2023-03-25T11:25:07.978Z,0.10
2023-03-25T11:27:51.912Z,0.22
2023-03-25T11:30:21.378Z,0.50
2023-03-25T11:33:13.217Z,0.20
2023-03-25T11:35:44.475Z,0.30
2023-03-25T11:38:16.824Z,0.17
2023-03-25T11:41:04.846Z,0.20
2023-03-25T11:43:50.341Z,0.28
2023-03-25T11:46:21.035Z,0.50
2023-03-25T11:48:50.211Z,0.10
2023-03-25T11:51:27.766Z,0.20
2023-03-25T11:54:06.040Z,0.20
2023-03-25T11:56:39.009Z,0.20
2023-03-25T11:59:18.641Z,0.40
2023-03-25T12:01:51.073Z,0.40
2023-03-25T12:04:23.251Z,3.20
2023-03-25T12:07:10.761Z,0.60
2023-03-25T12:09:37.412Z,0.20
2023-03-25T12:12:39.462Z,0.63
2023-03-25T12:15:09.400Z,0.30
2023-03-25T12:17:54.345Z,0.30
2023-03-25T12:20:41.302Z,0.15
2023-03-25T12:23:29.538Z,0.52
2023-03-25T12:26:13.227Z,0.15
2023-03-25T12:28:39.802Z,0.50
2023-03-25T12:31:11.231Z,0.47
2023-03-25T12:33:38.191Z,0.30
2023-03-25T12:36:48.596Z,1.05
2023-03-25T12:39:39.554Z,0.43
2023-03-25T12:42:42.284Z,0.32
2023-03-25T12:45:31.510Z,0.20
2023-03-25T12:48:33.588Z,0.20
2023-03-25T12:51:07.657Z,0.30
2023-03-25T12:53:40.312Z,0.30
2023-03-25T12:56:28.796Z,0.10
2023-03-25T12:59:17.360Z,0.30
2023-03-25T13:02:03.585Z,0.40
2023-03-25T13:05:00.853Z,0.20
2023-03-25T13:07:51.037Z,0.22
2023-03-25T13:13:28.574Z,0.65
2023-03-25T13:16:07.712Z,0.40
2023-03-25T13:18:40.775Z,0.30
2023-03-25T13:21:14.067Z,0.77
2023-03-25T13:23:43.613Z,0.52
2023-03-25T13:26:14.381Z,0.22
2023-03-25T13:28:58.331Z,0.22
2023-03-25T13:31:42.486Z,0.10
2023-03-25T13:34:22.747Z,0.30
2023-03-25T13:37:03.322Z,0.45
2023-03-25T13:39:43.165Z,0.35
2023-03-25T13:42:21.039Z,0.32
2023-03-25T13:44:51.429Z,0.80
2023-03-25T13:47:25.465Z,0.57
2023-03-25T13:50:14.610Z,0.17
2023-03-25T13:52:46.365Z,0.45
2023-03-25T13:55:22.531Z,0.50
2023-03-25T13:58:13.159Z,0.70
2023-03-25T14:01:09.290Z,0.20
2023-03-25T14:04:03.865Z,0.70
2023-03-25T14:06:57.616Z,0.90
2023-03-25T14:09:42.306Z,0.50
2023-03-25T14:12:25.935Z,0.32
2023-03-25T14:15:05.016Z,0.60
2023-03-25T14:17:35.685Z,0.50
2023-03-25T14:20:08.343Z,0.57
2023-03-25T14:22:43.641Z,0.40
2023-03-25T14:25:21.155Z,0.30
2023-03-25T14:27:52.005Z,0.95
2023-03-25T14:30:22.669Z,0.45
2023-03-25T14:32:50.010Z,0.35
2023-03-25T14:35:35.312Z,0.40
2023-03-25T14:38:08.455Z,0.68
2023-03-25T14:40:58.976Z,0.77
2023-03-25T14:43:35.572Z,0.50
2023-03-25T14:46:14.516Z,0.63
2023-03-25T14:49:18.428Z,0.43
2023-03-25T14:51:50.373Z,0.82
2023-03-25T14:54:30.313Z,0.70
2023-03-25T14:57:04.575Z,0.50
2023-03-25T14:59:36.894Z,0.35
2023-03-25T15:02:14.022Z,0.45
2023-03-25T15:04:41.243Z,0.80
2023-03-25T15:09:52.562Z,0.45
2023-03-25T15:12:25.347Z,0.40
2023-03-25T15:14:56.815Z,0.60
2023-03-25T15:17:45.972Z,0.50
2023-03-25T15:20:28.718Z,0.75
2023-03-25T15:23:31.948Z,0.70
2023-03-25T15:26:01.549Z,0.50
2023-03-25T15:28:43.696Z,0.10
2023-03-25T15:31:10.291Z,0.30
2023-03-25T15:33:46.102Z,0.38
2023-03-25T15:36:40.731Z,0.60
2023-03-25T15:39:18.899Z,0.40
2023-03-25T15:41:54.761Z,0.47
2023-03-25T15:44:50.652Z,0.35
2023-03-25T15:47:31.471Z,0.50
2023-03-25T15:50:07.680Z,0.30
2023-03-25T15:53:12.129Z,0.22
2023-03-25T15:56:10.033Z,0.40
2023-03-25T15:59:07.088Z,0.40
2023-03-25T16:01:36.009Z,0.43
2023-03-25T16:04:18.657Z,0.30
2023-03-25T16:06:50.703Z,0.85
2023-03-25T16:09:28.566Z,0.30
2023-03-25T16:12:02.805Z,0.30
2023-03-25T16:14:32.266Z,0.35
2023-03-25T16:17:01.883Z,0.40
2023-03-25T16:20:06.897Z,0.40
2023-03-25T16:22:35.763Z,0.60
2023-03-25T16:25:14.165Z,0.25
2023-03-25T16:27:47.924Z,0.40
2023-03-25T16:30:25.976Z,0.20
2023-03-25T16:32:53.065Z,0.90
2023-03-25T16:35:24.719Z,0.40
2023-03-25T16:37:58.664Z,0.30
2023-03-25T16:40:29.995Z,0.77
2023-03-25T16:43:07.833Z,0.70
2023-03-25T16:45:35.645Z,0.98
2023-03-25T16:48:09.638Z,0.30
2023-03-25T16:50:36.986Z,0.90
2023-03-25T16:53:05.807Z,0.32
2023-03-25T16:55:43.937Z,0.47
2023-03-25T16:58:18.219Z,0.80
2023-03-25T17:00:48.082Z,0.50
2023-03-25T17:03:24.534Z,0.73
2023-03-25T17:06:02.362Z,0.50
2023-03-25T17:08:29.375Z,0.60
2023-03-25T17:10:58.961Z,0.40
2023-03-25T17:13:38.100Z,0.80
2023-03-25T17:16:07.762Z,0.32
2023-03-25T17:18:36.546Z,0.70
2023-03-25T17:21:03.347Z,0.65
2023-03-25T17:23:36.391Z,0.70
2023-03-25T17:26:07.488Z,0.57
2023-03-25T17:28:40.043Z,0.70
2023-03-25T17:31:28.429Z,0.55
2023-03-25T17:34:11.825Z,0.52
2023-03-25T17:36:45.354Z,0.70
2023-03-25T17:41:42.883Z,0.63
2023-03-25T17:44:15.852Z,0.38
2023-03-25T17:46:42.930Z,0.32
2023-03-25T17:49:18.354Z,0.60
2023-03-25T17:51:46.349Z,0.57
2023-03-25T17:54:14.481Z,0.35
2023-03-25T17:56:41.349Z,0.52
2023-03-25T17:59:18.817Z,0.20
2023-03-25T18:01:49.998Z,0.30
2023-03-25T18:04:18.438Z,0.60
2023-03-25T18:06:45.162Z,0.70
2023-03-25T18:09:24.123Z,0.40
2023-03-25T18:11:56.616Z,0.60
2023-03-25T18:14:24.155Z,0.85
2023-03-25T18:16:51.756Z,0.88
2023-03-25T18:21:50.383Z,0.95
2023-03-25T18:24:17.253Z,0.98
2023-03-25T18:26:47.429Z,1.27
2023-03-25T18:29:19.686Z,1.10
2023-03-25T18:31:47.064Z,1.08
2023-03-25T18:34:15.000Z,1.30
2023-03-25T18:36:43.345Z,1.15
2023-03-25T18:39:19.580Z,0.82
2023-03-25T18:41:46.352Z,0.82
2023-03-25T18:44:13.229Z,1.85
2023-03-25T18:46:40.850Z,1.33
2023-03-25T18:49:17.155Z,1.08
2023-03-25T18:51:43.909Z,1.00
2023-03-25T18:54:10.937Z,1.08
2023-03-25T18:56:38.122Z,1.10
2023-03-25T18:59:04.880Z,1.20
2023-03-25T19:01:31.861Z,1.20
2023-03-25T19:04:02.359Z,1.20
2023-03-25T19:06:29.914Z,1.58
2023-03-25T19:08:57.482Z,1.20
2023-03-25T19:11:24.766Z,1.65
2023-03-25T19:13:52.076Z,1.58
2023-03-25T19:16:19.267Z,1.55
2023-03-25T19:18:47.449Z,1.77
2023-03-25T19:21:16.147Z,1.80
2023-03-25T19:23:43.024Z,1.85
2023-03-25T19:26:10.261Z,1.70
2023-03-25T19:28:37.014Z,1.65
2023-03-25T19:31:03.969Z,1.80
2023-03-25T19:33:31.509Z,1.88
2023-03-25T19:36:01.441Z,2.08
2023-03-25T19:38:30.070Z,2.60
2023-03-25T19:41:06.658Z,1.95
2023-03-25T19:43:33.797Z,2.80
2023-03-25T19:46:00.995Z,1.90
2023-03-25T19:48:29.726Z,1.75
2023-03-25T19:50:56.815Z,2.15
2023-03-25T19:53:25.112Z,2.25
2023-03-25T19:55:52.322Z,1.75
2023-03-25T19:58:20.625Z,2.50
2023-03-25T20:00:47.798Z,1.42
2023-03-25T20:03:14.671Z,2.17
2023-03-25T20:05:42.020Z,2.92
2023-03-25T20:08:09.535Z,1.63
2023-03-25T20:10:39.011Z,2.58
2023-03-25T20:13:06.013Z,2.95
2023-03-25T20:15:33.044Z,2.03
2023-03-25T20:17:59.659Z,2.33
2023-03-25T20:20:26.468Z,2.75
2023-03-25T20:22:53.422Z,2.95
2023-03-25T20:25:20.457Z,2.38
2023-03-25T20:27:47.347Z,2.35
2023-03-25T20:30:16.937Z,2.47
2023-03-25T20:32:45.690Z,2.75
2023-03-25T20:35:15.978Z,2.45
2023-03-25T20:37:43.796Z,2.50
2023-03-25T20:40:13.875Z,2.95
2023-03-25T20:42:42.387Z,2.22
2023-03-25T20:45:11.324Z,2.30
2023-03-25T20:47:38.440Z,3.03
2023-03-25T20:50:06.456Z,3.20
2023-03-25T20:52:34.177Z,3.42
2023-03-25T20:57:27.792Z,2.22
2023-03-25T20:59:54.464Z,2.58
2023-03-25T21:02:21.463Z,1.80
2023-03-25T21:04:48.552Z,2.30
2023-03-25T21:07:19.258Z,1.92
2023-03-25T21:09:49.597Z,1.80
2023-03-25T21:12:16.404Z,1.83
2023-03-25T21:14:43.093Z,1.98
2023-03-25T21:17:10.017Z,2.33
2023-03-25T21:19:36.893Z,1.85
2023-03-25T21:22:04.105Z,2.03
2023-03-25T21:24:31.633Z,1.70
2023-03-25T21:26:58.249Z,1.77
2023-03-25T21:29:24.885Z,1.75
2023-03-25T21:31:51.480Z,1.88
2023-03-25T21:34:18.193Z,2.03
2023-03-25T21:36:44.744Z,1.90
2023-03-25T21:39:11.381Z,1.83
2023-03-25T21:41:38.507Z,2.50
2023-03-25T21:44:06.202Z,1.95
2023-03-25T21:46:33.568Z,1.50
2023-03-25T21:49:01.350Z,2.58
2023-03-25T21:53:59.589Z,1.63
2023-03-25T21:56:30.733Z,1.35
2023-03-25T21:58:57.975Z,1.83
2023-03-25T22:01:29.586Z,1.70
2023-03-25T22:03:57.865Z,1.50
2023-03-25T22:06:29.963Z,1.75
2023-03-25T22:08:57.261Z,2.20
2023-03-25T22:11:29.600Z,1.70
2023-03-25T22:13:56.768Z,1.90
2023-03-25T22:16:23.607Z,1.80
2023-03-25T22:18:50.530Z,1.90
2023-03-25T22:21:22.785Z,1.60
2023-03-25T22:23:54.156Z,2.00
2023-03-25T22:26:23.050Z,2.03
2023-03-25T22:28:54.213Z,2.25
2023-03-25T22:31:30.862Z,1.73
2023-03-25T22:34:10.712Z,2.10
2023-03-25T22:36:51.034Z,1.75
2023-03-25T22:39:19.884Z,1.85
2023-03-25T22:41:49.715Z,1.40
2023-03-25T22:44:17.922Z,1.70
2023-03-25T22:46:46.155Z,1.50
2023-03-25T22:49:13.355Z,1.25
2023-03-25T22:51:39.998Z,1.67
2023-03-25T22:54:07.424Z,1.80
2023-03-25T22:56:34.125Z,1.92
2023-03-25T22:59:02.212Z,1.48
2023-03-25T23:01:29.573Z,1.30
2023-03-25T23:03:57.725Z,2.38
2023-03-25T23:06:26.156Z,1.70
2023-03-25T23:08:56.171Z,2.00
2023-03-25T23:11:25.999Z,1.58
2023-03-25T23:13:58.476Z,2.47
2023-03-25T23:16:27.967Z,2.03
2023-03-25T23:18:54.776Z,2.00
2023-03-25T23:21:24.185Z,2.47
2023-03-25T23:23:53.900Z,1.88
2023-03-25T23:26:24.752Z,1.90
2023-03-25T23:28:53.079Z,1.35
2023-03-25T23:31:28.537Z,1.90
2023-03-25T23:33:58.285Z,1.50
2023-03-25T23:36:28.225Z,1.52
2023-03-25T23:38:55.554Z,1.42
2023-03-25T23:41:23.510Z,2.00
2023-03-25T23:43:50.949Z,2.10
2023-03-25T23:46:19.914Z,2.15
2023-03-25T23:48:47.464Z,1.13
2023-03-25T23:51:17.553Z,1.58
2023-03-25T23:53:46.708Z,1.85
2023-03-25T23:56:15.838Z,1.52
2023-03-25T23:58:42.745Z,1.60
